createdAt,value
2018-12-21T00:00:13.847Z,1006.99
2018-12-21T00:01:13.842Z,1006.95
2018-12-21T00:02:13.832Z,1007.00
2018-12-21T00:03:13.841Z,1007.01
2018-12-21T00:04:14.066Z,1007.00
2018-12-21T00:05:13.831Z,1007.03
2018-12-21T00:06:13.817Z,1007.03
2018-12-21T00:07:13.816Z,1007.01
2018-12-21T00:08:13.807Z,1007.01
2018-12-21T00:09:13.813Z,1006.98
2018-12-21T00:10:13.810Z,1006.96
2018-12-21T00:11:13.789Z,1006.96
2018-12-21T00:12:13.787Z,1006.95
2018-12-21T00:13:13.777Z,1006.92
2018-12-21T00:14:13.774Z,1006.90
2018-12-21T00:15:13.970Z,1006.89
2018-12-21T00:16:13.769Z,1006.81
2018-12-21T00:17:13.755Z,1006.79
2018-12-21T00:18:13.966Z,1006.73
2018-12-21T00:19:13.759Z,1006.72
2018-12-21T00:20:13.756Z,1006.69
2018-12-21T00:21:21.655Z,1006.71
2018-12-21T00:22:13.748Z,1006.68
2018-12-21T00:23:13.747Z,1006.66
2018-12-21T00:24:13.722Z,1006.66
2018-12-21T00:25:13.716Z,1006.62
2018-12-21T00:26:13.714Z,1006.65
2018-12-21T00:27:13.909Z,1006.66
2018-12-21T00:28:13.712Z,1006.62
2018-12-21T00:29:13.705Z,1006.62
2018-12-21T00:30:13.687Z,1006.69
2018-12-21T00:31:13.690Z,1006.66
2018-12-21T00:32:13.886Z,1006.65
2018-12-21T00:33:13.668Z,1006.61
2018-12-21T00:34:13.675Z,1006.58
2018-12-21T00:35:13.880Z,1006.60
2018-12-21T00:36:13.690Z,1006.60
2018-12-21T00:37:13.658Z,1006.54
2018-12-21T00:38:13.650Z,1006.57
2018-12-21T00:39:13.662Z,1006.60
2018-12-21T00:40:13.648Z,1006.53
2018-12-21T00:41:13.643Z,1006.54
2018-12-21T00:42:21.181Z,1006.52
2018-12-21T00:43:13.825Z,1006.54
2018-12-21T00:44:13.615Z,1006.56
2018-12-21T00:45:13.640Z,1006.50
2018-12-21T00:46:13.605Z,1006.50
2018-12-21T00:47:13.598Z,1006.49
2018-12-21T00:48:13.597Z,1006.43
2018-12-21T00:49:13.601Z,1006.46
2018-12-21T00:50:13.588Z,1006.42
2018-12-21T00:51:13.573Z,1006.43
2018-12-21T00:52:13.570Z,1006.41
2018-12-21T00:53:13.592Z,1006.44
2018-12-21T00:54:13.579Z,1006.39
2018-12-21T00:55:13.576Z,1006.41
2018-12-21T00:56:13.578Z,1006.39
2018-12-21T00:57:13.565Z,1006.39
2018-12-21T00:58:13.760Z,1006.37
2018-12-21T00:59:13.571Z,1006.34
2018-12-21T01:00:13.763Z,1006.40
2018-12-21T01:01:13.541Z,1006.37
2018-12-21T01:02:13.519Z,1006.41
2018-12-21T01:03:13.527Z,1006.40
2018-12-21T01:04:13.724Z,1006.37
2018-12-21T01:05:13.523Z,1006.39
2018-12-21T01:06:13.513Z,1006.38
2018-12-21T01:07:13.496Z,1006.35
2018-12-21T01:08:13.504Z,1006.38
2018-12-21T01:09:13.485Z,1006.35
2018-12-21T01:10:13.493Z,1006.33
2018-12-21T01:11:13.481Z,1006.33
2018-12-21T01:12:13.484Z,1006.37
2018-12-21T01:13:13.493Z,1006.35
2018-12-21T01:14:13.682Z,1006.35
2018-12-21T01:15:13.473Z,1006.37
2018-12-21T01:16:13.458Z,1006.35
2018-12-21T01:17:13.441Z,1006.35
2018-12-21T01:18:13.433Z,1006.30
2018-12-21T01:19:13.436Z,1006.24
2018-12-21T01:20:13.430Z,1006.22
2018-12-21T01:21:13.426Z,1006.23
2018-12-21T01:22:13.419Z,1006.20
2018-12-21T01:23:13.429Z,1006.22
2018-12-21T01:24:13.424Z,1006.18
2018-12-21T01:25:13.400Z,1006.13
2018-12-21T01:26:13.410Z,1006.14
2018-12-21T01:27:13.393Z,1006.16
2018-12-21T01:28:13.386Z,1006.14
2018-12-21T01:29:13.605Z,1006.13
2018-12-21T01:30:13.581Z,1006.10
2018-12-21T01:31:13.384Z,1006.03
2018-12-21T01:32:13.376Z,1006.07
2018-12-21T01:33:13.570Z,1006.05
2018-12-21T01:34:13.365Z,1006.06
2018-12-21T01:35:13.354Z,1006.05
2018-12-21T01:36:13.339Z,1006.08
2018-12-21T01:37:13.342Z,1006.09
2018-12-21T01:38:13.335Z,1006.09
2018-12-21T01:39:13.328Z,1006.11
2018-12-21T01:40:13.324Z,1006.09
2018-12-21T01:41:13.320Z,1006.04
2018-12-21T01:42:13.383Z,1006.07
2018-12-21T01:43:13.516Z,1006.04
2018-12-21T01:44:13.311Z,1006.04
2018-12-21T01:45:13.296Z,1006.05
2018-12-21T01:46:13.495Z,1006.05
2018-12-21T01:47:13.288Z,1005.98
2018-12-21T01:48:13.274Z,1005.98
2018-12-21T01:49:13.479Z,1005.98
2018-12-21T01:50:13.483Z,1005.99
2018-12-21T01:51:13.279Z,1005.95
2018-12-21T01:52:13.467Z,1005.94
2018-12-21T01:53:13.255Z,1005.93
2018-12-21T01:54:13.464Z,1005.88
2018-12-21T01:55:13.464Z,1005.88
2018-12-21T01:56:13.244Z,1005.88
2018-12-21T01:57:13.242Z,1005.79
2018-12-21T01:58:13.224Z,1005.82
2018-12-21T01:59:13.223Z,1005.79
2018-12-21T02:00:13.217Z,1005.71
2018-12-21T02:01:13.218Z,1005.71
2018-12-21T02:02:13.207Z,1005.76
2018-12-21T02:03:13.208Z,1005.72
2018-12-21T02:04:13.211Z,1005.66
2018-12-21T02:05:13.208Z,1005.65
2018-12-21T02:06:13.188Z,1005.64
2018-12-21T02:07:13.175Z,1005.67
2018-12-21T02:08:13.390Z,1005.62
2018-12-21T02:09:13.390Z,1005.59
2018-12-21T02:10:13.371Z,1005.59
2018-12-21T02:11:13.364Z,1005.56
2018-12-21T02:12:13.157Z,1005.52
2018-12-21T02:13:13.164Z,1005.50
2018-12-21T02:14:13.365Z,1005.47
2018-12-21T02:15:13.147Z,1005.45
2018-12-21T02:16:13.335Z,1005.45
2018-12-21T02:17:13.335Z,1005.43
2018-12-21T02:18:13.125Z,1005.39
2018-12-21T02:19:13.330Z,1005.36
2018-12-21T02:20:13.108Z,1005.35
2018-12-21T02:21:13.108Z,1005.31
2018-12-21T02:22:13.117Z,1005.30
2018-12-21T02:23:13.094Z,1005.24
2018-12-21T02:24:13.294Z,1005.25
2018-12-21T02:25:13.081Z,1005.23
2018-12-21T02:26:13.088Z,1005.23
2018-12-21T02:27:13.074Z,1005.17
2018-12-21T02:28:13.065Z,1005.20
2018-12-21T02:29:13.070Z,1005.14
2018-12-21T02:30:13.059Z,1005.07
2018-12-21T02:31:13.064Z,1005.05
2018-12-21T02:32:13.248Z,1005.03
2018-12-21T02:33:13.040Z,1005.01
2018-12-21T02:34:13.248Z,1005.05
2018-12-21T02:35:13.244Z,1005.03
2018-12-21T02:36:13.040Z,1005.08
2018-12-21T02:37:13.031Z,1005.00
2018-12-21T02:38:13.017Z,1004.96
2018-12-21T02:39:13.013Z,1004.98
2018-12-21T02:40:13.004Z,1004.96
2018-12-21T02:41:13.025Z,1004.97
2018-12-21T02:42:12.989Z,1004.92
2018-12-21T02:43:12.994Z,1004.95
2018-12-21T02:44:13.010Z,1004.85
2018-12-21T02:45:12.985Z,1004.85
2018-12-21T02:46:13.193Z,1004.80
2018-12-21T02:47:12.968Z,1004.82
2018-12-21T02:48:12.963Z,1004.83
2018-12-21T02:49:12.966Z,1004.79
2018-12-21T02:50:13.154Z,1004.78
2018-12-21T02:51:12.947Z,1004.75
2018-12-21T02:52:13.153Z,1004.72
2018-12-21T02:53:13.146Z,1004.76
2018-12-21T02:54:12.942Z,1004.71
2018-12-21T02:55:13.130Z,1004.72
2018-12-21T02:56:13.125Z,1004.69
2018-12-21T02:57:12.926Z,1004.64
2018-12-21T02:58:12.913Z,1004.62
2018-12-21T02:59:12.899Z,1004.56
2018-12-21T03:00:12.899Z,1004.53
2018-12-21T03:01:12.905Z,1004.52
2018-12-21T03:02:12.888Z,1004.52
2018-12-21T03:03:13.084Z,1004.47
2018-12-21T03:04:12.877Z,1004.43
2018-12-21T03:05:13.073Z,1004.45
2018-12-21T03:06:12.859Z,1004.43
2018-12-21T03:07:12.858Z,1004.42
2018-12-21T03:08:12.858Z,1004.41
2018-12-21T03:09:12.858Z,1004.41
2018-12-21T03:10:12.842Z,1004.41
2018-12-21T03:11:12.845Z,1004.36
2018-12-21T03:12:12.842Z,1004.38
2018-12-21T03:13:12.822Z,1004.34
2018-12-21T03:14:12.814Z,1004.35
2018-12-21T03:15:12.825Z,1004.34
2018-12-21T03:16:12.823Z,1004.34
2018-12-21T03:17:12.802Z,1004.36
2018-12-21T03:18:12.796Z,1004.38
2018-12-21T03:19:12.795Z,1004.35
2018-12-21T03:20:12.789Z,1004.38
2018-12-21T03:21:12.991Z,1004.33
2018-12-21T03:22:15.049Z,1004.34
2018-12-21T03:23:12.779Z,1004.29
2018-12-21T03:24:12.967Z,1004.25
2018-12-21T03:25:12.782Z,1004.18
2018-12-21T03:26:12.754Z,1004.15
2018-12-21T03:27:12.753Z,1004.06
2018-12-21T03:28:12.971Z,1004.09
2018-12-21T03:29:12.732Z,1004.08
2018-12-21T03:30:12.740Z,1004.06
2018-12-21T03:31:12.993Z,1004.11
2018-12-21T03:32:12.926Z,1004.03
2018-12-21T03:33:12.925Z,1004.03
2018-12-21T03:34:12.707Z,1003.97
2018-12-21T03:35:12.703Z,1003.99
2018-12-21T03:36:12.722Z,1003.93
2018-12-21T03:37:12.690Z,1003.91
2018-12-21T03:38:12.911Z,1003.94
2018-12-21T03:39:12.680Z,1003.92
2018-12-21T03:40:12.675Z,1003.87
2018-12-21T03:41:12.676Z,1003.81
2018-12-21T03:42:12.676Z,1003.80
2018-12-21T03:43:12.659Z,1003.79
2018-12-21T03:44:12.657Z,1003.75
2018-12-21T03:45:12.645Z,1003.76
2018-12-21T03:46:12.649Z,1003.74
2018-12-21T03:47:12.635Z,1003.71
2018-12-21T03:48:12.662Z,1003.70
2018-12-21T03:49:12.830Z,1003.65
2018-12-21T03:50:12.637Z,1003.62
2018-12-21T03:51:12.621Z,1003.60
2018-12-21T03:52:12.608Z,1003.56
2018-12-21T03:53:12.616Z,1003.57
2018-12-21T03:54:12.591Z,1003.51
2018-12-21T03:55:12.600Z,1003.43
2018-12-21T03:56:12.802Z,1003.43
2018-12-21T03:57:12.583Z,1003.42
2018-12-21T03:58:12.589Z,1003.37
2018-12-21T03:59:12.779Z,1003.33
2018-12-21T04:00:12.570Z,1003.31
2018-12-21T04:01:12.566Z,1003.25
2018-12-21T04:02:12.554Z,1003.22
2018-12-21T04:03:12.577Z,1003.18
2018-12-21T04:04:12.746Z,1003.12
2018-12-21T04:05:12.563Z,1003.14
2018-12-21T04:06:12.535Z,1003.12
2018-12-21T04:07:12.730Z,1003.07
2018-12-21T04:08:12.521Z,1002.96
2018-12-21T04:09:12.526Z,1002.92
2018-12-21T04:10:12.513Z,1002.90
2018-12-21T04:11:12.518Z,1002.86
2018-12-21T04:12:12.496Z,1002.80
2018-12-21T04:13:12.494Z,1002.79
2018-12-21T04:14:12.502Z,1002.79
2018-12-21T04:15:12.516Z,1002.77
2018-12-21T04:16:12.488Z,1002.74
2018-12-21T04:17:12.485Z,1002.71
2018-12-21T04:18:12.675Z,1002.68
2018-12-21T04:19:12.464Z,1002.64
2018-12-21T04:20:12.473Z,1002.64
2018-12-21T04:21:12.449Z,1002.61
2018-12-21T04:22:12.461Z,1002.53
2018-12-21T04:23:12.449Z,1002.48
2018-12-21T04:24:12.645Z,1002.53
2018-12-21T04:25:12.449Z,1002.54
2018-12-21T04:26:12.426Z,1002.45
2018-12-21T04:27:12.422Z,1002.43
2018-12-21T04:28:12.633Z,1002.46
2018-12-21T04:29:12.410Z,1002.44
2018-12-21T04:30:12.406Z,1002.47
2018-12-21T04:31:12.395Z,1002.41
2018-12-21T04:32:12.390Z,1002.35
2018-12-21T04:33:12.388Z,1002.33
2018-12-21T04:34:12.379Z,1002.30
2018-12-21T04:35:12.383Z,1002.26
2018-12-21T04:36:12.366Z,1002.29
2018-12-21T04:37:12.365Z,1002.18
2018-12-21T04:38:12.371Z,1002.19
2018-12-21T04:39:12.563Z,1002.14
2018-12-21T04:40:12.348Z,1002.09
2018-12-21T04:41:12.349Z,1002.12
2018-12-21T04:42:12.349Z,1002.06
2018-12-21T04:43:12.334Z,1002.06
2018-12-21T04:44:12.327Z,1002.08
2018-12-21T04:45:12.317Z,1002.07
2018-12-21T04:46:12.319Z,1002.10
2018-12-21T04:47:12.311Z,1002.09
2018-12-21T04:48:12.526Z,1002.04
2018-12-21T04:49:12.304Z,1002.09
2018-12-21T04:50:12.293Z,1002.00
2018-12-21T04:51:12.292Z,1002.01
2018-12-21T04:52:12.292Z,1002.04
2018-12-21T04:53:12.295Z,1002.07
2018-12-21T04:54:12.287Z,1002.06
2018-12-21T04:55:12.271Z,1002.06
2018-12-21T04:56:12.474Z,1002.08
2018-12-21T04:57:12.270Z,1002.11
2018-12-21T04:58:12.263Z,1002.09
2018-12-21T04:59:12.249Z,1002.04
2018-12-21T05:00:12.243Z,1002.03
2018-12-21T05:01:12.259Z,1001.98
2018-12-21T05:02:12.243Z,1002.02
2018-12-21T05:03:12.221Z,1001.97
2018-12-21T05:04:19.864Z,1001.95
2018-12-21T05:05:12.419Z,1001.91
2018-12-21T05:06:12.205Z,1001.92
2018-12-21T05:07:12.882Z,1001.92
2018-12-21T05:08:12.207Z,1001.86
2018-12-21T05:09:12.205Z,1001.91
2018-12-21T05:10:12.187Z,1001.88
2018-12-21T05:11:12.185Z,1001.88
2018-12-21T05:12:12.178Z,1001.88
2018-12-21T05:13:12.171Z,1001.82
2018-12-21T05:14:12.179Z,1001.78
2018-12-21T05:15:12.173Z,1001.73
2018-12-21T05:16:12.159Z,1001.72
2018-12-21T05:17:12.168Z,1001.68
2018-12-21T05:18:12.347Z,1001.62
2018-12-21T05:19:12.135Z,1001.62
2018-12-21T05:20:12.130Z,1001.56
2018-12-21T05:21:12.127Z,1001.49
2018-12-21T05:22:12.123Z,1001.45
2018-12-21T05:23:12.117Z,1001.46
2018-12-21T05:24:12.108Z,1001.39
2018-12-21T05:25:12.110Z,1001.37
2018-12-21T05:26:12.301Z,1001.38
2018-12-21T05:27:12.096Z,1001.39
2018-12-21T05:28:12.089Z,1001.33
2018-12-21T05:29:12.278Z,1001.27
2018-12-21T05:30:12.077Z,1001.24
2018-12-21T05:31:12.083Z,1001.21
2018-12-21T05:32:12.075Z,1001.15
2018-12-21T05:33:12.068Z,1001.06
2018-12-21T05:34:12.047Z,1001.09
2018-12-21T05:35:12.050Z,1001.09
2018-12-21T05:36:12.043Z,1001.02
2018-12-21T05:37:12.048Z,1001.03
2018-12-21T05:38:12.029Z,1000.94
2018-12-21T05:39:12.023Z,1000.96
2018-12-21T05:40:12.022Z,1000.89
2018-12-21T05:41:12.012Z,1000.92
2018-12-21T05:42:12.222Z,1000.87
2018-12-21T05:43:12.007Z,1000.89
2018-12-21T05:44:12.199Z,1000.85
2018-12-21T05:45:11.991Z,1000.86
2018-12-21T05:46:11.979Z,1000.83
2018-12-21T05:47:11.994Z,1000.74
2018-12-21T05:48:12.177Z,1000.70
2018-12-21T05:49:11.963Z,1000.58
2018-12-21T05:50:11.973Z,1000.55
2018-12-21T05:51:12.166Z,1000.48
2018-12-21T05:52:12.161Z,1000.54
2018-12-21T05:53:11.947Z,1000.49
2018-12-21T05:54:11.938Z,1000.40
2018-12-21T05:55:12.241Z,1000.40
2018-12-21T05:56:11.945Z,1000.40
2018-12-21T05:57:11.929Z,1000.35
2018-12-21T05:58:11.916Z,1000.33
2018-12-21T05:59:12.119Z,1000.24
2018-12-21T06:00:11.902Z,1000.24
2018-12-21T06:01:11.915Z,1000.21
2018-12-21T06:02:11.889Z,1000.19
2018-12-21T06:03:11.883Z,1000.13
2018-12-21T06:04:11.892Z,1000.17
2018-12-21T06:05:11.880Z,1000.11
2018-12-21T06:06:11.877Z,1000.14
2018-12-21T06:07:11.865Z,1000.09
2018-12-21T06:08:11.872Z,1000.05
2018-12-21T06:09:11.853Z,1000.01
2018-12-21T06:10:12.050Z,1000.02
2018-12-21T06:11:12.055Z,1000.02
2018-12-21T06:12:12.045Z,999.97
2018-12-21T06:13:11.827Z,999.94
2018-12-21T06:14:11.823Z,999.95
2018-12-21T06:15:11.870Z,999.86
2018-12-21T06:16:11.808Z,999.87
2018-12-21T06:17:11.813Z,999.84
2018-12-21T06:18:11.797Z,999.87
2018-12-21T06:19:12.342Z,999.84
2018-12-21T06:20:11.787Z,999.85
2018-12-21T06:21:11.786Z,999.87
2018-12-21T06:22:11.774Z,999.75
2018-12-21T06:23:11.767Z,999.76
2018-12-21T06:24:11.778Z,999.75
2018-12-21T06:25:11.766Z,999.63
2018-12-21T06:26:11.760Z,999.68
2018-12-21T06:27:11.824Z,999.64
2018-12-21T06:28:11.942Z,999.55
2018-12-21T06:29:11.962Z,999.62
2018-12-21T06:30:11.932Z,999.60
2018-12-21T06:31:11.727Z,999.50
2018-12-21T06:32:11.725Z,999.52
2018-12-21T06:33:11.913Z,999.44
2018-12-21T06:34:11.710Z,999.44
2018-12-21T06:35:11.918Z,999.40
2018-12-21T06:36:11.720Z,999.37
2018-12-21T06:37:11.688Z,999.38
2018-12-21T06:38:11.896Z,999.33
2018-12-21T06:39:11.679Z,999.35
2018-12-21T06:40:11.683Z,999.28
2018-12-21T06:41:11.671Z,999.24
2018-12-21T06:42:11.697Z,999.26
2018-12-21T06:43:11.658Z,999.20
2018-12-21T06:44:11.674Z,999.27
2018-12-21T06:45:11.652Z,999.18
2018-12-21T06:46:14.319Z,999.20
2018-12-21T06:47:11.650Z,999.19
2018-12-21T06:48:11.622Z,999.06
2018-12-21T06:49:11.627Z,999.10
2018-12-21T06:50:11.623Z,999.14
2018-12-21T06:51:11.817Z,999.11
2018-12-21T06:52:11.611Z,999.14
2018-12-21T06:53:17.876Z,999.11
2018-12-21T06:54:11.809Z,999.04
2018-12-21T06:55:11.599Z,999.03
2018-12-21T06:56:11.593Z,998.95
2018-12-21T06:57:11.568Z,998.95
2018-12-21T06:58:11.771Z,998.98
2018-12-21T06:59:11.560Z,999.00
2018-12-21T07:00:11.555Z,998.99
2018-12-21T07:01:11.551Z,998.96
2018-12-21T07:02:11.748Z,998.92
2018-12-21T07:03:17.129Z,998.91
2018-12-21T07:04:11.543Z,998.92
2018-12-21T07:05:11.531Z,998.94
2018-12-21T07:06:11.517Z,998.87
2018-12-21T07:07:11.539Z,998.79
2018-12-21T07:08:11.538Z,998.80
2018-12-21T07:09:11.506Z,998.72
2018-12-21T07:10:11.514Z,998.77
2018-12-21T07:11:11.498Z,998.74
2018-12-21T07:12:11.486Z,998.72
2018-12-21T07:13:11.497Z,998.70
2018-12-21T07:14:11.472Z,998.73
2018-12-21T07:15:11.667Z,998.70
2018-12-21T07:16:11.691Z,998.66
2018-12-21T07:17:11.476Z,998.64
2018-12-21T07:18:11.465Z,998.65
2018-12-21T07:19:11.483Z,998.59
2018-12-21T07:20:11.466Z,998.48
2018-12-21T07:21:11.463Z,998.50
2018-12-21T07:22:11.434Z,998.47
2018-12-21T07:23:11.422Z,998.50
2018-12-21T07:24:11.432Z,998.49
2018-12-21T07:25:11.443Z,998.44
2018-12-21T07:26:11.412Z,998.45
2018-12-21T07:27:11.397Z,998.42
2018-12-21T07:28:11.398Z,998.41
2018-12-21T07:29:11.387Z,998.43
2018-12-21T07:30:11.397Z,998.43
2018-12-21T07:31:11.380Z,998.40
2018-12-21T07:32:11.374Z,998.51
2018-12-21T07:33:11.380Z,998.41
2018-12-21T07:34:11.566Z,998.41
2018-12-21T07:35:11.570Z,998.45
2018-12-21T07:36:11.342Z,998.42
2018-12-21T07:37:11.347Z,998.40
2018-12-21T07:38:11.347Z,998.37
2018-12-21T07:39:11.338Z,998.35
2018-12-21T07:40:11.331Z,998.30
2018-12-21T07:41:11.331Z,998.23
2018-12-21T07:42:11.317Z,998.26
2018-12-21T07:43:11.312Z,998.30
2018-12-21T07:44:11.509Z,998.22
2018-12-21T07:45:11.295Z,998.18
2018-12-21T07:46:11.287Z,998.18
2018-12-21T07:47:11.497Z,998.17
2018-12-21T07:48:11.280Z,998.11
2018-12-21T07:49:11.273Z,998.05
2018-12-21T07:50:11.266Z,998.01
2018-12-21T07:51:11.258Z,997.91
2018-12-21T07:52:11.309Z,997.95
2018-12-21T07:53:11.259Z,997.89
2018-12-21T07:54:11.253Z,997.85
2018-12-21T07:55:11.235Z,997.84
2018-12-21T07:56:11.234Z,997.81
2018-12-21T07:57:11.229Z,997.84
2018-12-21T07:58:11.225Z,997.83
2018-12-21T07:59:11.214Z,997.78
2018-12-21T08:00:11.210Z,997.79
2018-12-21T08:01:11.202Z,997.70
2018-12-21T08:02:11.209Z,997.65
2018-12-21T08:03:11.391Z,997.68
2018-12-21T08:04:11.207Z,997.65
2018-12-21T08:05:11.185Z,997.62
2018-12-21T08:06:11.176Z,997.57
2018-12-21T08:07:11.170Z,997.54
2018-12-21T08:08:11.156Z,997.46
2018-12-21T08:09:11.359Z,997.48
2018-12-21T08:10:11.154Z,997.40
2018-12-21T08:11:11.149Z,997.38
2018-12-21T08:12:11.143Z,997.34
2018-12-21T08:13:11.131Z,997.28
2018-12-21T08:14:11.125Z,997.25
2018-12-21T08:15:11.137Z,997.20
2018-12-21T08:16:11.115Z,997.12
2018-12-21T08:17:11.103Z,997.17
2018-12-21T08:18:11.104Z,997.12
2018-12-21T08:19:11.104Z,997.13
2018-12-21T08:20:11.305Z,997.08
2018-12-21T08:21:11.088Z,997.12
2018-12-21T08:22:11.092Z,997.05
2018-12-21T08:23:11.072Z,996.98
2018-12-21T08:24:11.067Z,996.84
2018-12-21T08:25:11.066Z,996.91
2018-12-21T08:26:11.073Z,996.90
2018-12-21T08:27:11.059Z,996.94
2018-12-21T08:28:11.042Z,996.93
2018-12-21T08:29:11.042Z,996.86
2018-12-21T08:30:11.050Z,996.87
2018-12-21T08:31:11.329Z,996.79
2018-12-21T08:32:11.020Z,996.76
2018-12-21T08:33:11.015Z,996.74
2018-12-21T08:34:11.010Z,996.71
2018-12-21T08:35:11.003Z,996.60
2018-12-21T08:36:11.020Z,996.62
2018-12-21T08:37:10.990Z,996.47
2018-12-21T08:38:10.995Z,996.43
2018-12-21T08:39:10.978Z,996.43
2018-12-21T08:40:10.971Z,996.39
2018-12-21T08:41:10.970Z,996.50
2018-12-21T08:42:10.962Z,996.28
2018-12-21T08:43:10.959Z,996.31
2018-12-21T08:44:10.952Z,996.27
2018-12-21T08:45:10.952Z,996.33
2018-12-21T08:46:10.955Z,996.41
2018-12-21T08:47:10.935Z,996.35
2018-12-21T08:48:10.929Z,996.33
2018-12-21T08:49:11.023Z,996.25
2018-12-21T08:50:10.923Z,996.20
2018-12-21T08:51:10.909Z,996.29
2018-12-21T08:52:10.924Z,996.25
2018-12-21T08:53:10.914Z,996.17
2018-12-21T08:54:10.908Z,996.16
2018-12-21T08:55:11.978Z,996.11
2018-12-21T08:56:10.883Z,996.05
2018-12-21T08:57:10.886Z,996.07
2018-12-21T08:58:10.873Z,996.05
2018-12-21T08:59:10.868Z,996.01
2018-12-21T09:00:10.865Z,995.97
2018-12-21T09:01:10.850Z,995.95
2018-12-21T09:02:10.847Z,995.89
2018-12-21T09:03:10.861Z,995.92
2018-12-21T09:04:10.835Z,996.01
2018-12-21T09:05:10.838Z,996.03
2018-12-21T09:06:18.294Z,996.07
2018-12-21T09:07:10.832Z,996.01
2018-12-21T09:08:10.825Z,996.00
2018-12-21T09:09:10.810Z,995.98
2018-12-21T09:10:10.811Z,995.97
2018-12-21T09:11:10.810Z,995.87
2018-12-21T09:12:10.792Z,995.89
2018-12-21T09:13:10.790Z,995.90
2018-12-21T09:14:10.794Z,995.86
2018-12-21T09:15:10.785Z,995.83
2018-12-21T09:16:10.771Z,995.90
2018-12-21T09:17:10.774Z,995.88
2018-12-21T09:18:10.770Z,995.80
2018-12-21T09:19:10.818Z,995.79
2018-12-21T09:20:10.751Z,995.81
2018-12-21T09:21:10.760Z,995.77
2018-12-21T09:22:10.749Z,995.75
2018-12-21T09:23:10.727Z,995.77
2018-12-21T09:24:10.720Z,995.88
2018-12-21T09:25:10.725Z,995.83
2018-12-21T09:26:10.717Z,995.74
2018-12-21T09:27:10.722Z,995.81
2018-12-21T09:28:10.702Z,995.78
2018-12-21T09:29:10.722Z,995.65
2018-12-21T09:30:10.688Z,995.68
2018-12-21T09:31:10.698Z,995.71
2018-12-21T09:32:10.689Z,995.72
2018-12-21T09:33:10.676Z,995.74
2018-12-21T09:34:10.676Z,995.66
2018-12-21T09:35:10.667Z,995.68
2018-12-21T09:36:10.654Z,995.66
2018-12-21T09:37:10.645Z,995.63
2018-12-21T09:38:10.658Z,995.62
2018-12-21T09:39:10.633Z,995.58
2018-12-21T09:40:10.638Z,995.60
2018-12-21T09:41:10.624Z,995.60
2018-12-21T09:42:10.619Z,995.69
2018-12-21T09:43:10.625Z,995.64
2018-12-21T09:44:10.755Z,995.56
2018-12-21T09:45:10.626Z,995.60
2018-12-21T09:46:10.615Z,995.63
2018-12-21T09:47:10.598Z,995.66
2018-12-21T09:48:10.600Z,995.61
2018-12-21T09:49:10.598Z,995.59
2018-12-21T09:50:10.778Z,995.49
2018-12-21T09:51:10.574Z,995.60
2018-12-21T09:52:10.566Z,995.61
2018-12-21T09:53:10.566Z,995.64
2018-12-21T09:54:10.553Z,995.65
2018-12-21T09:55:10.761Z,995.52
2018-12-21T09:56:10.535Z,995.48
2018-12-21T09:57:10.533Z,995.46
2018-12-21T09:58:10.539Z,995.49
2018-12-21T09:59:10.521Z,995.41
2018-12-21T10:00:10.534Z,995.41
2018-12-21T10:01:10.509Z,995.25
2018-12-21T10:02:10.508Z,995.35
2018-12-21T10:03:10.518Z,995.37
2018-12-21T10:04:10.507Z,995.34
2018-12-21T10:05:10.503Z,995.34
2018-12-21T10:06:10.498Z,995.30
2018-12-21T10:07:10.480Z,995.35
2018-12-21T10:08:10.484Z,995.37
2018-12-21T10:09:10.670Z,995.32
2018-12-21T10:10:10.461Z,995.33
2018-12-21T10:11:10.460Z,995.30
2018-12-21T10:12:10.459Z,995.38
2018-12-21T10:13:10.444Z,995.30
2018-12-21T10:14:10.468Z,995.29
2018-12-21T10:15:10.434Z,995.28
2018-12-21T10:16:10.433Z,995.27
2018-12-21T10:17:10.445Z,995.30
2018-12-21T10:18:10.428Z,995.25
2018-12-21T10:19:10.430Z,995.21
2018-12-21T10:20:10.407Z,995.22
2018-12-21T10:21:10.399Z,995.21
2018-12-21T10:22:10.396Z,995.22
2018-12-21T10:23:10.401Z,995.20
2018-12-21T10:24:18.247Z,995.19
2018-12-21T10:25:10.382Z,995.18
2018-12-21T10:26:10.391Z,995.07
2018-12-21T10:27:10.576Z,995.08
2018-12-21T10:28:10.366Z,995.09
2018-12-21T10:29:10.373Z,995.20
2018-12-21T10:30:10.370Z,995.25
2018-12-21T10:31:10.359Z,995.17
2018-12-21T10:32:10.348Z,995.19
2018-12-21T10:33:10.336Z,995.19
2018-12-21T10:34:10.339Z,995.13
2018-12-21T10:35:10.325Z,995.21
2018-12-21T10:36:10.537Z,995.14
2018-12-21T10:37:10.548Z,995.21
2018-12-21T10:38:10.321Z,995.19
2018-12-21T10:39:10.311Z,995.12
2018-12-21T10:40:10.507Z,995.19
2018-12-21T10:41:10.295Z,995.15
2018-12-21T10:42:10.285Z,995.10
2018-12-21T10:43:10.285Z,995.08
2018-12-21T10:44:10.283Z,995.09
2018-12-21T10:45:10.475Z,995.06
2018-12-21T10:46:10.277Z,995.09
2018-12-21T10:47:10.273Z,995.01
2018-12-21T10:48:10.469Z,995.11
2018-12-21T10:49:10.252Z,995.12
2018-12-21T10:50:10.246Z,995.06
2018-12-21T10:51:10.255Z,995.03
2018-12-21T10:52:10.239Z,995.10
2018-12-21T10:53:10.447Z,995.09
2018-12-21T10:54:10.244Z,995.04
2018-12-21T10:55:10.220Z,995.05
2018-12-21T10:56:10.315Z,994.96
2018-12-21T10:57:10.215Z,994.97
2018-12-21T10:58:10.213Z,994.92
2018-12-21T10:59:10.200Z,994.93
2018-12-21T11:00:10.308Z,994.91
2018-12-21T11:01:10.228Z,994.93
2018-12-21T11:02:10.189Z,994.84
2018-12-21T11:03:10.200Z,994.90
2018-12-21T11:04:10.173Z,994.83
2018-12-21T11:05:10.174Z,994.94
2018-12-21T11:06:10.169Z,994.85
2018-12-21T11:07:10.158Z,994.84
2018-12-21T11:08:10.174Z,994.87
2018-12-21T11:09:10.363Z,994.94
2018-12-21T11:10:10.151Z,994.84
2018-12-21T11:11:10.143Z,994.95
2018-12-21T11:12:10.151Z,994.90
2018-12-21T11:13:10.146Z,994.81
2018-12-21T11:14:10.331Z,994.90
2018-12-21T11:15:10.400Z,994.80
2018-12-21T11:16:10.129Z,994.78
2018-12-21T11:17:10.323Z,994.84
2018-12-21T11:18:10.111Z,994.85
2018-12-21T11:19:10.115Z,994.78
2018-12-21T11:20:10.109Z,994.76
2018-12-21T11:21:10.199Z,994.79
2018-12-21T11:22:10.098Z,994.79
2018-12-21T11:23:10.081Z,994.80
2018-12-21T11:24:10.087Z,994.81
2018-12-21T11:25:10.090Z,994.70
2018-12-21T11:26:10.272Z,994.68
2018-12-21T11:27:10.086Z,994.72
2018-12-21T11:28:10.058Z,994.80
2018-12-21T11:29:10.082Z,994.78
2018-12-21T11:30:10.049Z,994.76
2018-12-21T11:31:10.060Z,994.86
2018-12-21T11:32:10.047Z,994.72
2018-12-21T11:33:10.049Z,994.76
2018-12-21T11:34:10.035Z,994.73
2018-12-21T11:35:10.043Z,994.71
2018-12-21T11:36:10.043Z,994.77
2018-12-21T11:37:10.020Z,994.76
2018-12-21T11:38:10.018Z,994.79
2018-12-21T11:39:10.010Z,994.70
2018-12-21T11:40:10.005Z,994.85
2018-12-21T11:41:09.997Z,994.75
2018-12-21T11:42:10.000Z,994.55
2018-12-21T11:43:10.003Z,994.79
2018-12-21T11:44:09.997Z,994.74
2018-12-21T11:45:10.000Z,994.84
2018-12-21T11:46:09.992Z,994.76
2018-12-21T11:47:10.177Z,994.78
2018-12-21T11:48:09.978Z,994.88
2018-12-21T11:49:10.166Z,994.77
2018-12-21T11:50:09.975Z,994.77
2018-12-21T11:51:09.983Z,994.76
2018-12-21T11:52:10.153Z,994.78
2018-12-21T11:53:10.145Z,994.78
2018-12-21T11:54:09.941Z,994.86
2018-12-21T11:55:10.144Z,994.91
2018-12-21T11:56:09.943Z,994.87
2018-12-21T11:57:09.946Z,994.88
2018-12-21T11:58:09.942Z,994.79
2018-12-21T11:59:09.920Z,994.88
2018-12-21T12:00:09.943Z,994.80
2018-12-21T12:01:09.927Z,994.90
2018-12-21T12:02:09.926Z,994.86
2018-12-21T12:03:09.931Z,994.74
2018-12-21T12:04:09.928Z,994.83
2018-12-21T12:05:09.906Z,994.84
2018-12-21T12:06:09.904Z,994.82
2018-12-21T12:07:09.902Z,994.82
2018-12-21T12:08:09.893Z,994.80
2018-12-21T12:09:09.883Z,994.81
2018-12-21T12:10:09.877Z,994.83
2018-12-21T12:11:09.884Z,994.82
2018-12-21T12:12:10.076Z,994.85
2018-12-21T12:13:09.871Z,994.80
2018-12-21T12:14:09.861Z,994.94
2018-12-21T12:15:09.871Z,994.93
2018-12-21T12:16:09.859Z,994.92